Port Said Airport, Egypt

12:22 EET 27. Listopad 2014 (GMT +0200)
Port Said | Change Station
CLOSE
Current Station
Letiště
Location: Port Said Airport,
Nadmořská výška: 7 ft
Poblíž povětrnostní stanice

Výška 7 ft 31.28 °N, 32.24 °E | Updated 22 minutes ago

Scattered Clouds
Polojasno
66 °F
Pocit jako 66 °F
S
13
Vítr proměnlivý Vítr od ZJZ

Dnes
Vysoké -- | Nízké -- °F
--% Možnost srážek
Včera
Vysoké -- | Nízké -- °F
Precip. -- inčů
6:28 AM 4:48 PM
Dorůstající srpek, 28% visible
Tlak 30.06 inčů
Viditelnost 6.2 mílí
Zataženo Polojasno 2500 ft
Rosný bod 55 °F
Vlhkost 68%
Dešťové srážky 0.00 inčů
Sněhová pokrývka Není k dispozici
UV záření 5 ze 12
Pyl Není k dispozici
Kvalita ovzduší Není k dispozici
Flu Activity Není k dispozici
METAR HEPS 271000Z 25011KT 9999 SCT025 19/13 Q1018 NOSIG

More Conditions Fewer Conditions

Tlak 30.06 inčů
Viditelnost 6.2 mílí
Zataženo Polojasno 2500 ft
Rosný bod 55 °F
Vlhkost 68%
Dešťové srážky 0.00 inčů
Sněhová pokrývka Není k dispozici
UV záření 5 ze 12
Pyl Není k dispozici
Kvalita ovzduší Není k dispozici
Flu Activity Není k dispozici
METAR HEPS 271000Z 25011KT 9999 SCT025 19/13 Q1018 NOSIG

More Conditions Fewer Conditions

10-Day Weather Forecast

Almanac

Astronomie

Nov. 27, 2014 Východ Západ
Skutečný čas
Občanský soumrak
Námořní soumrak
Astronomický soumrak
Měsíc
Délka denního světla
Délka dne
Tomorrow will be .
, % of the Moon is Illuminated

Dnešní extrémy

Nejvyšší hodnoty ve státě Nejnižší hodnoty ve státě

Community

WunderPhotos

Upload Photos

1,773,968 snímků staženo!

WunderBlogs® & News

Nearby

Kvalita ovzduší

  Kvalita ovzduší Index kvality ovzduší Polutant
Not available.

Výška sněhu

Station Hloubka Nadmořská výška

Seizmická činnost

Město Distance Mag. Čas & datum
Minimální zobrazený rozsah je 2.5.

Pobřežní teplota vody

Lokalita Teplota

Poblíž povětrnostní stanice